Time;durP1;ratioP1;P1;durP2;ratioP2;P2;SDS_P1;SDS_P2;PMS_P1;PMS_P2;Temp;Humidity;BMP_temperature;BMP_pressure;BME280_temperature;BME280_humidity;BME280_pressure;Samples;Min_cycle;Max_cycle;Signal;HPM_P1;HPM_P2
2023/04/16 00:02:12;;;;;;;;;12.00;10.00;21.50;37.90;;;;;;111194;1244;46836;-60
2023/04/16 00:04:38;;;;;;;;;11.00;8.75;21.50;37.90;;;;;;111005;1243;55198;-60
2023/04/16 00:07:07;;;;;;;;;12.00;10.00;21.40;37.80;;;;;;111152;1244;54109;-61
2023/04/16 00:09:33;;;;;;;;;12.00;9.00;21.40;37.80;;;;;;111331;1244;49936;-61
2023/04/16 00:12:00;;;;;;;;;11.75;10.00;21.40;37.80;;;;;;111189;1241;49786;-61
2023/04/16 00:14:28;;;;;;;;;11.75;10.50;21.50;37.90;;;;;;111214;1244;46360;-59
2023/04/16 00:16:55;;;;;;;;;11.00;9.00;21.40;37.80;;;;;;111289;1243;55880;-62
2023/04/16 00:19:22;;;;;;;;;10.00;9.00;21.40;37.80;;;;;;111163;1244;55354;-60
2023/04/16 00:21:49;;;;;;;;;12.00;10.75;21.40;37.80;;;;;;111194;1244;49402;-60
2023/04/16 00:24:16;;;;;;;;;11.00;9.50;21.40;37.80;;;;;;111271;1240;48987;-61
2023/04/16 00:26:45;;;;;;;;;13.00;10.00;21.30;37.80;;;;;;111285;1244;46211;-61
2023/04/16 00:29:12;;;;;;;;;11.00;9.50;21.30;37.80;;;;;;111319;1244;55577;-64
2023/04/16 00:31:39;;;;;;;;;9.75;8.75;21.30;37.90;;;;;;111238;1244;53515;-63
2023/04/16 00:34:06;;;;;;;;;11.50;9.75;21.40;37.90;;;;;;111357;1242;49547;-60
2023/04/16 00:36:33;;;;;;;;;13.33;10.33;21.30;37.80;;;;;;111177;1244;49830;-61
2023/04/16 00:38:59;;;;;;;;;11.00;10.00;21.30;38.00;;;;;;111191;1241;45836;-61
2023/04/16 00:41:26;;;;;;;;;11.75;9.75;21.30;37.80;;;;;;111168;1241;56128;-61
2023/04/16 00:43:53;;;;;;;;;10.75;9.75;21.30;37.80;;;;;;111067;1241;54853;-61
2023/04/16 00:46:24;;;;;;;;;11.00;9.75;21.30;37.80;;;;;;111222;1241;49152;-61
2023/04/16 00:48:54;;;;;;;;;12.75;9.00;21.30;37.80;;;;;;111295;1240;48977;-61
2023/04/16 00:51:21;;;;;;;;;11.00;9.33;21.30;37.80;;;;;;111027;1241;45182;-60
2023/04/16 00:53:48;;;;;;;;;13.25;10.00;21.20;37.70;;;;;;110957;1245;55425;-61
2023/04/16 00:56:15;;;;;;;;;11.00;10.00;21.30;37.80;;;;;;111146;1244;53679;-60
2023/04/16 00:58:42;;;;;;;;;13.00;10.67;21.20;37.70;;;;;;111183;1240;49287;-61
2023/04/16 01:01:09;;;;;;;;;11.00;10.00;21.20;37.70;;;;;;111200;1241;49155;-60
2023/04/16 01:03:43;;;;;;;;;14.25;11.25;21.20;37.70;;;;;;111200;1244;46412;-60
2023/04/16 01:06:11;;;;;;;;;13.75;10.00;21.20;37.70;;;;;;110970;1244;56380;-60
2023/04/16 01:08:38;;;;;;;;;13.50;10.25;21.20;37.80;;;;;;111281;1241;54202;-60
2023/04/16 01:11:05;;;;;;;;;13.00;10.00;21.20;38.20;;;;;;111208;1244;49882;-60
2023/04/16 01:13:32;;;;;;;;;12.00;9.00;21.20;37.90;;;;;;111218;1244;48921;-61
2023/04/16 01:16:00;;;;;;;;;13.00;11.67;21.20;37.80;;;;;;111289;1239;45385;-61
2023/04/16 01:18:27;;;;;;;;;10.00;8.75;21.10;37.70;;;;;;111187;1244;56137;-61
2023/04/16 01:20:54;;;;;;;;;11.00;9.75;21.20;37.70;;;;;;111255;1243;54040;-62
2023/04/16 01:23:21;;;;;;;;;12.00;11.00;21.10;37.90;;;;;;111190;1244;49223;-59
2023/04/16 01:25:48;;;;;;;;;10.00;8.00;21.20;37.70;;;;;;111240;1241;49098;-60
2023/04/16 01:28:15;;;;;;;;;11.00;10.00;21.10;37.90;;;;;;111230;1244;45465;-60
2023/04/16 01:30:43;;;;;;;;;13.25;10.00;21.10;37.70;;;;;;110960;1241;55535;-61
2023/04/16 01:33:11;;;;;;;;;13.00;10.00;21.10;37.70;;;;;;111170;1244;54162;-61
2023/04/16 01:35:42;;;;;;;;;12.00;10.25;21.10;37.20;;;;;;110981;1244;49771;-61
2023/04/16 01:38:09;;;;;;;;;14.00;11.00;21.10;37.70;;;;;;111205;1241;49353;-61
2023/04/16 01:40:36;;;;;;;;;11.00;9.75;21.10;37.60;;;;;;111260;1245;45844;-59
2023/04/16 01:43:03;;;;;;;;;14.00;11.00;21.10;37.60;;;;;;111172;1244;56754;-61
2023/04/16 01:45:31;;;;;;;;;12.00;11.00;21.10;37.70;;;;;;111230;1244;53885;-61
2023/04/16 01:47:59;;;;;;;;;12.25;11.00;21.00;37.60;;;;;;111226;1241;49517;-61
2023/04/16 01:50:26;;;;;;;;;12.00;10.75;21.10;37.70;;;;;;111040;1244;49691;-60
2023/04/16 01:52:53;;;;;;;;;11.50;10.00;21.00;37.60;;;;;;111172;1244;46080;-61
2023/04/16 01:55:20;;;;;;;;;10.75;8.75;21.00;37.60;;;;;;111220;1240;55889;-60
2023/04/16 01:57:47;;;;;;;;;11.00;9.50;21.00;37.60;;;;;;111228;1244;54331;-60
2023/04/16 02:00:15;;;;;;;;;11.25;10.00;21.00;37.80;;;;;;111170;1240;49950;-61
2023/04/16 02:02:42;;;;;;;;;11.00;9.33;21.00;37.60;;;;;;111181;1244;49265;-61
2023/04/16 02:05:09;;;;;;;;;11.00;10.00;21.00;37.70;;;;;;111205;1240;45522;-62
2023/04/16 02:07:36;;;;;;;;;13.33;11.00;21.00;37.80;;;;;;111176;1240;56910;-61
2023/04/16 02:10:04;;;;;;;;;12.50;11.00;21.00;37.60;;;;;;111223;1241;53984;-61
2023/04/16 02:12:31;;;;;;;;;12.00;10.50;21.00;37.40;;;;;;111273;1241;49069;-61
2023/04/16 02:14:59;;;;;;;;;11.00;10.00;20.90;37.50;;;;;;111158;1241;48930;-61
2023/04/16 02:17:26;;;;;;;;;12.00;10.00;20.90;37.50;;;;;;111162;1241;45875;-61
2023/04/16 02:19:52;;;;;;;;;11.75;10.00;20.90;37.70;;;;;;111195;1241;55377;-61
2023/04/16 02:22:19;;;;;;;;;15.00;12.00;20.90;37.50;;;;;;111284;1244;53895;-60
2023/04/16 02:24:46;;;;;;;;;15.00;11.00;20.90;37.60;;;;;;111176;1241;49488;-61
2023/04/16 02:27:13;;;;;;;;;14.00;13.00;20.90;37.60;;;;;;111215;1245;49607;-61
2023/04/16 02:29:40;;;;;;;;;11.75;10.75;20.90;37.80;;;;;;111153;1245;45908;-61
2023/04/16 02:32:07;;;;;;;;;13.67;11.67;20.90;37.70;;;;;;111165;1241;56221;-61
2023/04/16 02:34:34;;;;;;;;;14.00;13.00;20.80;37.50;;;;;;111187;1239;54010;-60
2023/04/16 02:37:01;;;;;;;;;11.00;10.00;20.90;37.80;;;;;;111358;1244;49220;-61
2023/04/16 02:39:28;;;;;;;;;14.50;13.00;20.80;37.70;;;;;;111284;1241;48873;-60
2023/04/16 02:41:56;;;;;;;;;11.00;10.00;20.90;37.60;;;;;;111225;1244;45553;-60
2023/04/16 02:44:23;;;;;;;;;14.33;10.00;20.80;37.70;;;;;;111233;1240;55111;-61
2023/04/16 02:46:50;;;;;;;;;12.33;11.00;20.80;37.60;;;;;;111144;1241;54210;-61
2023/04/16 02:49:17;;;;;;;;;14.00;12.00;20.80;37.60;;;;;;111346;1244;50013;-61
2023/04/16 02:51:44;;;;;;;;;13.75;11.00;20.80;37.60;;;;;;111206;1241;49759;-61
2023/04/16 02:54:11;;;;;;;;;12.25;10.75;20.80;37.60;;;;;;111203;1244;45885;-61
2023/04/16 02:56:38;;;;;;;;;13.00;11.00;20.70;37.50;;;;;;111211;1244;56625;-62
2023/04/16 02:59:05;;;;;;;;;15.00;14.00;20.80;37.60;;;;;;111223;1244;53720;-60
2023/04/16 03:01:32;;;;;;;;;12.67;11.33;20.70;37.50;;;;;;111154;1241;52052;-60
2023/04/16 03:03:59;;;;;;;;;11.75;10.00;20.80;37.60;;;;;;111333;1243;50229;-60
2023/04/16 03:06:26;;;;;;;;;14.50;13.00;20.80;37.60;;;;;;111246;1242;46625;-61
2023/04/16 03:08:53;;;;;;;;;13.75;12.25;20.70;37.50;;;;;;111233;1239;56088;-61
2023/04/16 03:11:20;;;;;;;;;12.00;11.00;20.70;37.50;;;;;;111298;1244;53309;-61
2023/04/16 03:13:47;;;;;;;;;12.75;11.75;20.70;37.70;;;;;;111254;1240;49240;-62
2023/04/16 03:16:14;;;;;;;;;14.67;13.00;20.70;37.70;;;;;;111542;1241;48859;-61
2023/04/16 03:18:41;;;;;;;;;14.00;12.25;20.70;37.50;;;;;;111207;1241;46152;-61
2023/04/16 03:21:08;;;;;;;;;13.75;12.25;20.70;37.50;;;;;;111234;1241;55375;-61
2023/04/16 03:23:35;;;;;;;;;15.00;13.75;20.70;37.50;;;;;;111194;1244;53414;-61
2023/04/16 03:26:02;;;;;;;;;13.00;11.00;20.70;37.20;;;;;;111258;1240;49569;-63
2023/04/16 03:28:29;;;;;;;;;14.00;10.75;20.60;37.40;;;;;;111281;1241;48813;-61
2023/04/16 03:30:56;;;;;;;;;13.00;11.33;20.70;37.50;;;;;;111273;1244;45610;-63
2023/04/16 03:33:23;;;;;;;;;12.00;10.67;20.60;37.40;;;;;;110947;1241;55535;-61
2023/04/16 03:35:57;;;;;;;;;13.25;12.00;20.60;37.40;;;;;;111289;1241;53295;-62
2023/04/16 03:38:27;;;;;;;;;12.00;11.00;20.60;37.50;;;;;;111148;1241;49927;-62
2023/04/16 03:40:54;;;;;;;;;13.00;12.00;20.60;37.40;;;;;;111208;1239;49840;-61
2023/04/16 03:43:21;;;;;;;;;11.75;10.00;20.60;37.40;;;;;;111266;1244;45493;-60
2023/04/16 03:45:48;;;;;;;;;15.00;12.00;20.60;37.60;;;;;;111255;1239;55214;-61
2023/04/16 03:48:15;;;;;;;;;11.75;9.75;20.60;37.70;;;;;;111176;1241;55099;-61
2023/04/16 03:50:48;;;;;;;;;15.25;13.00;20.60;37.50;;;;;;111192;1244;49226;-61
2023/04/16 03:53:15;;;;;;;;;12.75;11.25;20.60;37.50;;;;;;111210;1242;49146;-61
2023/04/16 03:55:42;;;;;;;;;13.50;11.75;20.60;37.70;;;;;;111242;1241;45712;-61
2023/04/16 03:58:09;;;;;;;;;14.33;13.00;20.60;37.50;;;;;;111163;1241;55301;-60
2023/04/16 04:00:36;;;;;;;;;12.00;10.00;20.60;37.50;;;;;;111241;1241;53192;-61
2023/04/16 04:03:03;;;;;;;;;13.00;11.25;20.60;37.70;;;;;;111252;1239;49311;-60
2023/04/16 04:05:30;;;;;;;;;13.75;11.75;20.60;37.50;;;;;;111224;1239;49655;-61
2023/04/16 04:07:57;;;;;;;;;11.00;9.25;20.50;37.50;;;;;;111258;1244;46058;-61
2023/04/16 04:10:24;;;;;;;;;11.00;9.75;20.50;37.50;;;;;;111205;1244;56363;-62
2023/04/16 04:12:51;;;;;;;;;13.67;12.00;20.50;37.40;;;;;;111301;1244;54850;-61
2023/04/16 04:15:18;;;;;;;;;13.00;11.67;20.50;37.50;;;;;;111253;1243;48871;-61
2023/04/16 04:17:45;;;;;;;;;13.00;12.00;20.50;37.50;;;;;;111239;1244;49465;-61
2023/04/16 04:20:11;;;;;;;;;11.67;10.67;20.50;37.10;;;;;;111226;1243;45889;-60
2023/04/16 04:22:38;;;;;;;;;13.00;12.00;20.50;37.50;;;;;;111224;1243;56150;-61
2023/04/16 04:25:07;;;;;;;;;12.25;10.00;20.40;37.40;;;;;;111217;1241;54787;-61
2023/04/16 04:27:34;;;;;;;;;10.00;9.00;20.40;37.50;;;;;;111289;1241;50202;-62
2023/04/16 04:30:03;;;;;;;;;14.75;11.75;20.40;37.40;;;;;;111239;1243;49942;-60
2023/04/16 04:32:30;;;;;;;;;12.50;11.00;20.40;37.60;;;;;;111292;1240;45527;-61
2023/04/16 04:35:01;;;;;;;;;14.25;12.25;20.40;37.40;;;;;;111241;1243;55389;-59
2023/04/16 04:37:28;;;;;;;;;12.33;11.33;20.40;37.50;;;;;;111271;1242;54310;-62
2023/04/16 04:39:55;;;;;;;;;12.25;11.00;20.40;37.40;;;;;;111350;1240;49350;-60
2023/04/16 04:42:23;;;;;;;;;12.00;11.00;20.40;37.50;;;;;;111169;1241;49055;-60
2023/04/16 04:44:50;;;;;;;;;14.00;11.00;20.40;38.00;;;;;;111203;1242;45511;-61
2023/04/16 04:47:17;;;;;;;;;14.33;12.67;20.40;37.50;;;;;;111248;1241;56371;-61
2023/04/16 04:49:43;;;;;;;;;12.00;11.00;20.40;37.50;;;;;;110289;1239;1277924;-61
2023/04/16 04:52:11;;;;;;;;;14.00;11.00;20.30;37.50;;;;;;111181;1244;49053;-61
2023/04/16 04:54:40;;;;;;;;;14.00;11.00;20.30;37.70;;;;;;110956;1244;49064;-61
2023/04/16 04:57:07;;;;;;;;;11.25;9.75;20.30;37.50;;;;;;111210;1244;45957;-60
2023/04/16 04:59:34;;;;;;;;;13.00;12.00;20.30;37.50;;;;;;111211;1244;56476;-61
2023/04/16 05:02:02;;;;;;;;;13.00;10.25;20.30;37.60;;;;;;111195;1244;54119;-61
2023/04/16 05:04:30;;;;;;;;;13.00;11.67;20.30;37.40;;;;;;111286;1241;49100;-59
2023/04/16 05:06:57;;;;;;;;;12.00;10.33;20.30;37.50;;;;;;111272;1240;49131;-60
2023/04/16 05:09:24;;;;;;;;;13.00;11.33;20.30;37.50;;;;;;111208;1244;45996;-61
2023/04/16 05:11:51;;;;;;;;;13.25;12.00;20.30;37.50;;;;;;111253;1244;55364;-61
2023/04/16 05:14:18;;;;;;;;;11.75;10.75;20.30;37.50;;;;;;111434;1239;54352;-61
2023/04/16 05:16:45;;;;;;;;;11.00;10.00;20.30;37.50;;;;;;111192;1244;49635;-61
2023/04/16 05:19:12;;;;;;;;;10.00;9.00;20.30;37.50;;;;;;111370;1241;50080;-61
2023/04/16 05:21:39;;;;;;;;;13.00;12.00;20.30;37.50;;;;;;111211;1240;46113;-61
2023/04/16 05:24:06;;;;;;;;;15.33;12.00;20.30;37.50;;;;;;111259;1242;56075;-59
2023/04/16 05:26:33;;;;;;;;;13.00;12.00;20.30;37.50;;;;;;111300;1244;54078;-63
2023/04/16 05:29:00;;;;;;;;;11.00;9.33;20.30;37.50;;;;;;111263;1244;50126;-61
2023/04/16 05:31:27;;;;;;;;;13.50;12.00;20.30;37.50;;;;;;111177;1240;49065;-60
2023/04/16 05:33:54;;;;;;;;;13.50;12.00;20.30;37.50;;;;;;111206;1248;45981;-62
2023/04/16 05:36:21;;;;;;;;;12.25;11.00;20.30;37.50;;;;;;111202;1241;55264;-62
2023/04/16 05:38:48;;;;;;;;;13.00;11.00;20.30;37.50;;;;;;111300;1243;54025;-62
2023/04/16 05:41:15;;;;;;;;;13.00;11.50;20.30;37.50;;;;;;111164;1244;49069;-62
2023/04/16 05:43:42;;;;;;;;;12.00;10.50;20.30;37.50;;;;;;111133;1240;50298;-61
2023/04/16 05:46:09;;;;;;;;;11.50;10.50;20.30;37.50;;;;;;111217;1239;45295;-62
2023/04/16 05:48:36;;;;;;;;;12.00;10.67;20.20;37.40;;;;;;111285;1244;56144;-62
2023/04/16 05:51:04;;;;;;;;;13.00;11.75;20.30;37.50;;;;;;111156;1243;54264;-62
2023/04/16 05:53:31;;;;;;;;;13.00;11.00;20.30;37.70;;;;;;111139;1244;49769;-61
2023/04/16 05:55:58;;;;;;;;;15.25;11.00;20.30;37.50;;;;;;111249;1240;50413;-61
2023/04/16 05:58:25;;;;;;;;;14.00;12.25;20.30;37.60;;;;;;111208;1239;45703;-62
2023/04/16 06:00:51;;;;;;;;;13.00;11.25;20.30;37.60;;;;;;111133;1241;56585;-61
2023/04/16 06:03:18;;;;;;;;;12.00;10.50;20.30;37.60;;;;;;111167;1244;54287;-62
2023/04/16 06:05:47;;;;;;;;;15.00;12.50;20.30;37.80;;;;;;111160;1244;49739;-62
2023/04/16 06:08:14;;;;;;;;;13.00;10.75;20.30;37.60;;;;;;111300;1241;49511;-62
2023/04/16 06:10:41;;;;;;;;;12.33;11.00;20.40;37.80;;;;;;111175;1241;45397;-62
2023/04/16 06:13:07;;;;;;;;;16.00;14.00;20.40;37.60;;;;;;110986;1244;55888;-61
2023/04/16 06:15:34;;;;;;;;;15.00;12.75;20.40;37.60;;;;;;111182;1244;54713;-62
2023/04/16 06:18:01;;;;;;;;;13.67;12.33;20.40;37.60;;;;;;111155;1240;50518;-61
2023/04/16 06:20:29;;;;;;;;;13.00;11.67;20.40;37.50;;;;;;111166;1241;50002;-60
2023/04/16 06:22:56;;;;;;;;;11.25;9.50;20.50;37.60;;;;;;111167;1241;46077;-61
2023/04/16 06:25:23;;;;;;;;;14.25;10.75;20.50;37.60;;;;;;110975;1244;55571;-61
2023/04/16 06:27:50;;;;;;;;;17.25;12.00;20.50;37.60;;;;;;111267;1239;54942;-60
2023/04/16 06:30:18;;;;;;;;;13.25;12.00;20.50;37.60;;;;;;111192;1241;50691;-61
2023/04/16 06:32:45;;;;;;;;;11.50;10.00;20.50;37.60;;;;;;111266;1244;49299;-60
2023/04/16 06:35:12;;;;;;;;;14.00;13.00;20.50;37.60;;;;;;110990;1241;45422;-60
2023/04/16 06:37:40;;;;;;;;;13.00;12.00;20.50;37.60;;;;;;111223;1239;56226;-60
2023/04/16 06:40:08;;;;;;;;;13.00;12.00;20.60;37.60;;;;;;111236;1240;53517;-61
2023/04/16 06:42:35;;;;;;;;;13.00;11.75;20.60;37.60;;;;;;110960;1244;49325;-60
2023/04/16 06:45:03;;;;;;;;;12.00;11.00;20.60;37.60;;;;;;111210;1241;49508;-60
2023/04/16 06:47:30;;;;;;;;;13.00;11.00;20.60;37.60;;;;;;111261;1241;46691;-62
2023/04/16 06:49:57;;;;;;;;;14.25;11.25;20.70;37.60;;;;;;111201;1241;55658;-58
2023/04/16 06:52:24;;;;;;;;;13.00;12.00;20.70;37.60;;;;;;111199;1244;54144;-62
2023/04/16 06:54:51;;;;;;;;;14.75;12.00;20.70;37.70;;;;;;111259;1240;48995;-61
2023/04/16 06:57:18;;;;;;;;;12.00;11.00;20.70;37.50;;;;;;111269;1241;49518;-61
2023/04/16 06:59:45;;;;;;;;;12.00;11.00;20.80;37.60;;;;;;111264;1241;45144;-64
2023/04/16 07:02:12;;;;;;;;;11.25;10.00;20.80;37.50;;;;;;111196;1244;55817;-61
2023/04/16 07:04:39;;;;;;;;;13.75;10.75;20.90;37.50;;;;;;111005;1242;54074;-61
2023/04/16 07:07:07;;;;;;;;;14.75;12.00;20.90;37.70;;;;;;111150;1241;49571;-61
2023/04/16 07:09:34;;;;;;;;;11.75;10.75;20.90;37.40;;;;;;111189;1240;49366;-60
2023/04/16 07:12:01;;;;;;;;;13.25;12.25;20.90;37.40;;;;;;111228;1244;45815;-61
2023/04/16 07:14:28;;;;;;;;;13.50;12.00;21.00;37.50;;;;;;111278;1239;56629;-61
2023/04/16 07:16:54;;;;;;;;;11.00;10.00;21.00;37.70;;;;;;111215;1241;54127;-61
2023/04/16 07:19:22;;;;;;;;;14.25;12.75;21.00;37.40;;;;;;111192;1240;50472;-60
2023/04/16 07:21:49;;;;;;;;;15.50;14.00;21.10;37.50;;;;;;111227;1241;49245;-60
2023/04/16 07:24:16;;;;;;;;;13.50;10.75;21.10;37.50;;;;;;111247;1243;45219;-60
2023/04/16 07:26:43;;;;;;;;;14.50;11.75;21.10;37.40;;;;;;111220;1241;56488;-60
2023/04/16 07:29:09;;;;;;;;;13.75;12.00;21.10;37.40;;;;;;111242;1241;54633;-60
2023/04/16 07:31:37;;;;;;;;;13.50;12.00;21.10;37.40;;;;;;111240;1241;49519;-60
2023/04/16 07:34:04;;;;;;;;;12.00;11.00;21.20;37.40;;;;;;111230;1244;50638;-60
2023/04/16 07:36:31;;;;;;;;;14.75;11.50;21.20;37.40;;;;;;111208;1244;45491;-60
2023/04/16 07:38:58;;;;;;;;;12.75;11.25;21.20;37.40;;;;;;111175;1248;55834;-61
2023/04/16 07:41:25;;;;;;;;;12.25;10.75;21.20;37.60;;;;;;111217;1244;54332;-61
2023/04/16 07:43:52;;;;;;;;;13.25;12.00;21.20;37.40;;;;;;111244;1239;50027;-60
2023/04/16 07:46:19;;;;;;;;;16.00;12.00;21.20;37.30;;;;;;111284;1241;48826;-62
2023/04/16 07:48:46;;;;;;;;;12.00;10.00;21.30;37.50;;;;;;111306;1244;45750;-61
2023/04/16 07:51:13;;;;;;;;;16.00;12.75;21.30;37.40;;;;;;111283;1239;56027;-62
2023/04/16 07:53:42;;;;;;;;;13.00;12.00;21.30;37.30;;;;;;111235;1243;53870;-62
2023/04/16 07:56:09;;;;;;;;;12.00;10.75;21.30;37.40;;;;;;111219;1241;49276;-62
2023/04/16 07:58:36;;;;;;;;;14.25;10.00;21.30;37.30;;;;;;111002;1240;49054;-60
2023/04/16 08:01:03;;;;;;;;;12.00;10.00;21.30;37.90;;;;;;111344;1244;46115;-61
2023/04/16 08:03:30;;;;;;;;;13.67;10.67;21.40;37.40;;;;;;111272;1244;56514;-61
2023/04/16 08:05:57;;;;;;;;;12.75;9.75;21.40;37.40;;;;;;111327;1241;53686;-61
2023/04/16 08:08:24;;;;;;;;;13.00;11.00;21.40;37.40;;;;;;111013;1241;49776;-61
2023/04/16 08:10:54;;;;;;;;;12.00;11.00;21.40;37.40;;;;;;111199;1244;49777;-61
2023/04/16 08:13:22;;;;;;;;;12.00;10.00;21.40;37.40;;;;;;111002;1247;45593;-60
2023/04/16 08:15:49;;;;;;;;;11.50;10.00;21.40;37.60;;;;;;111327;1241;56809;-60
2023/04/16 08:18:18;;;;;;;;;12.67;11.00;21.50;37.40;;;;;;111233;1244;53654;-60
2023/04/16 08:20:45;;;;;;;;;12.00;11.00;21.50;37.40;;;;;;111227;1241;49610;-61
2023/04/16 08:23:12;;;;;;;;;11.00;9.25;21.50;37.40;;;;;;111269;1241;49082;-61
2023/04/16 08:25:39;;;;;;;;;11.00;10.00;21.50;37.60;;;;;;111286;1241;45677;-60
2023/04/16 08:28:07;;;;;;;;;11.00;9.25;21.50;37.40;;;;;;111278;1242;55610;-60
2023/04/16 08:30:34;;;;;;;;;14.75;12.00;21.60;37.40;;;;;;111266;1243;54266;-61
2023/04/16 08:33:01;;;;;;;;;12.00;11.00;21.60;37.40;;;;;;111247;1243;49726;-60
2023/04/16 08:35:28;;;;;;;;;12.00;10.00;21.60;37.40;;;;;;111281;1240;48913;-62
2023/04/16 08:37:56;;;;;;;;;14.00;12.50;21.60;37.40;;;;;;111256;1244;45791;-60
2023/04/16 08:40:27;;;;;;;;;11.00;10.00;21.70;37.50;;;;;;111217;1244;56272;-61
2023/04/16 08:42:57;;;;;;;;;14.00;12.67;21.70;37.50;;;;;;111220;1241;54191;-59
2023/04/16 08:45:25;;;;;;;;;12.75;11.50;21.70;37.50;;;;;;111221;1244;50159;-60
2023/04/16 08:47:53;;;;;;;;;10.00;9.33;21.70;37.40;;;;;;111232;1244;49834;-60
2023/04/16 08:50:24;;;;;;;;;12.00;11.00;21.80;37.40;;;;;;111213;1244;45469;-60
2023/04/16 08:52:57;;;;;;;;;12.00;10.33;21.80;37.80;;;;;;111257;1242;55273;-61
2023/04/16 08:55:38;;;;;;;;;11.00;10.00;21.80;37.40;;;;;;111027;1247;53668;-60
2023/04/16 08:58:12;;;;;;;;;12.00;10.00;21.80;37.40;;;;;;111240;1244;49081;-61
2023/04/16 09:00:40;;;;;;;;;11.25;9.75;21.80;37.00;;;;;;111256;1244;49549;-61
2023/04/16 09:03:08;;;;;;;;;10.67;9.00;21.80;37.30;;;;;;111309;1244;46593;-61
2023/04/16 09:05:36;;;;;;;;;11.75;10.75;21.80;37.30;;;;;;111345;1244;55403;-61
2023/04/16 09:08:05;;;;;;;;;13.00;10.50;21.80;37.40;;;;;;111268;1244;53945;-61
2023/04/16 09:10:33;;;;;;;;;11.75;10.00;21.80;37.50;;;;;;111026;1246;49663;-60
2023/04/16 09:13:00;;;;;;;;;12.75;10.00;21.90;36.90;;;;;;111341;1241;49634;-61
2023/04/16 09:15:28;;;;;;;;;13.75;11.00;21.80;37.30;;;;;;111063;1242;46563;-59
2023/04/16 09:17:56;;;;;;;;;12.00;10.75;21.90;37.50;;;;;;111297;1241;55704;-61
2023/04/16 09:20:23;;;;;;;;;13.33;10.00;21.90;37.40;;;;;;111290;1241;54101;-60
2023/04/16 09:22:50;;;;;;;;;13.00;11.50;21.90;37.40;;;;;;111285;1244;49464;-60
2023/04/16 09:25:20;;;;;;;;;11.00;9.67;21.90;37.40;;;;;;111270;1241;49223;-60
2023/04/16 09:27:50;;;;;;;;;12.50;10.50;21.90;37.40;;;;;;111293;1241;46018;-60
2023/04/16 09:30:20;;;;;;;;;10.33;9.00;21.90;37.30;;;;;;110986;1242;55162;-62
2023/04/16 09:32:48;;;;;;;;;11.67;9.00;22.00;37.40;;;;;;111288;1240;54937;-61
2023/04/16 09:35:18;;;;;;;;;9.75;8.00;22.00;37.40;;;;;;111326;1240;50205;-61
2023/04/16 09:37:55;;;;;;;;;15.75;13.00;22.00;37.40;;;;;;111264;1241;49317;-61
2023/04/16 09:40:29;;;;;;;;;11.50;9.75;22.00;37.30;;;;;;111289;1243;45415;-59
2023/04/16 09:42:57;;;;;;;;;13.00;10.75;22.10;37.40;;;;;;111228;1244;55550;-61
2023/04/16 09:45:24;;;;;;;;;12.25;9.50;22.10;37.40;;;;;;111259;1241;54873;-60
2023/04/16 09:47:51;;;;;;;;;10.00;8.67;22.10;37.30;;;;;;111287;1242;49966;-65
2023/04/16 09:50:19;;;;;;;;;11.75;9.75;22.10;37.30;;;;;;111254;1244;49449;-61
2023/04/16 09:52:50;;;;;;;;;11.50;10.50;22.10;37.50;;;;;;111026;1244;45151;-61
2023/04/16 09:55:22;;;;;;;;;9.00;8.00;22.10;37.30;;;;;;111224;1241;55058;-61
2023/04/16 09:57:57;;;;;;;;;12.75;9.75;22.20;36.90;;;;;;111210;1243;53998;-61
2023/04/16 10:00:24;;;;;;;;;10.00;9.00;22.20;37.30;;;;;;111256;1244;49308;-61
2023/04/16 10:03:03;;;;;;;;;10.25;8.75;22.20;37.50;;;;;;111224;1242;48862;-61
2023/04/16 10:05:30;;;;;;;;;13.00;10.75;22.30;37.40;;;;;;111285;1244;46086;-60
2023/04/16 10:08:00;;;;;;;;;11.50;10.50;22.30;37.50;;;;;;111239;1239;55940;-61
2023/04/16 10:10:28;;;;;;;;;12.25;9.75;22.30;37.20;;;;;;111035;1244;54358;-61
2023/04/16 10:12:55;;;;;;;;;12.00;10.50;22.30;37.20;;;;;;111255;1239;49739;-61
2023/04/16 10:15:22;;;;;;;;;11.67;10.67;22.30;37.40;;;;;;111258;1240;49960;-61
2023/04/16 10:17:50;;;;;;;;;9.00;8.00;22.30;37.40;;;;;;111231;1242;45512;-60
2023/04/16 10:20:17;;;;;;;;;10.00;9.00;22.40;37.30;;;;;;111290;1242;56494;-62
2023/04/16 10:22:44;;;;;;;;;13.00;10.00;22.40;37.30;;;;;;110947;1240;54681;-61
2023/04/16 10:25:11;;;;;;;;;10.75;9.75;22.40;37.30;;;;;;111156;1241;49840;-62
2023/04/16 10:27:39;;;;;;;;;11.67;9.33;22.40;37.60;;;;;;110960;1245;50504;-61
2023/04/16 10:30:07;;;;;;;;;10.00;9.00;22.40;37.30;;;;;;111007;1246;46179;-61
2023/04/16 10:32:35;;;;;;;;;10.67;9.67;22.40;37.30;;;;;;111234;1244;55135;-61
2023/04/16 10:35:03;;;;;;;;;13.67;10.33;22.40;37.30;;;;;;111244;1244;53463;-61
2023/04/16 10:37:31;;;;;;;;;12.00;11.00;22.40;37.50;;;;;;111310;1241;49999;-61
2023/04/16 10:39:58;;;;;;;;;10.50;9.50;22.50;37.60;;;;;;111260;1241;50593;-63
2023/04/16 10:42:26;;;;;;;;;11.00;9.00;22.50;37.30;;;;;;111237;1239;45269;-61
2023/04/16 10:44:53;;;;;;;;;11.75;10.75;22.50;37.30;;;;;;111248;1244;55723;-60
2023/04/16 10:47:23;;;;;;;;;10.75;9.50;22.50;37.30;;;;;;111256;1244;54201;-61
2023/04/16 10:49:50;;;;;;;;;11.25;10.00;22.60;37.30;;;;;;111176;1244;49823;-61
2023/04/16 10:52:18;;;;;;;;;11.00;9.75;22.60;37.30;;;;;;111232;1243;50140;-60
2023/04/16 10:54:47;;;;;;;;;12.25;11.00;22.60;37.30;;;;;;111240;1244;46001;-60
2023/04/16 10:57:17;;;;;;;;;10.33;9.00;22.70;37.30;;;;;;111058;1244;55904;-61
2023/04/16 10:59:44;;;;;;;;;11.00;9.33;22.70;37.30;;;;;;111170;1241;53815;-61
2023/04/16 11:02:19;;;;;;;;;12.00;10.00;22.80;37.50;;;;;;111200;1243;49863;-60
2023/04/16 11:04:47;;;;;;;;;9.00;8.00;22.80;37.30;;;;;;111221;1239;49498;-60
2023/04/16 11:07:17;;;;;;;;;10.75;9.50;22.80;37.30;;;;;;111279;1244;45953;-61
2023/04/16 11:10:00;;;;;;;;;11.00;10.00;22.80;37.60;;;;;;111351;1241;55697;-61
2023/04/16 11:12:41;;;;;;;;;10.00;9.25;22.90;37.20;;;;;;111160;1243;53496;-61
2023/04/16 11:15:10;;;;;;;;;9.00;8.00;22.90;37.20;;;;;;111009;1241;49719;-61
2023/04/16 11:17:51;;;;;;;;;11.50;10.00;22.90;37.20;;;;;;111250;1244;48734;-61
2023/04/16 11:20:23;;;;;;;;;12.00;11.00;22.90;37.20;;;;;;111187;1241;45958;-60
2023/04/16 11:22:51;;;;;;;;;10.67;9.33;23.00;37.30;;;;;;111211;1244;55562;-62
2023/04/16 11:25:26;;;;;;;;;11.00;10.00;23.00;37.30;;;;;;111108;1241;54378;-62
2023/04/16 11:27:53;;;;;;;;;9.00;8.00;23.00;37.20;;;;;;111258;1241;49988;-62
2023/04/16 11:30:32;;;;;;;;;10.00;9.00;23.00;37.20;;;;;;111333;1243;48906;-62
2023/04/16 11:33:04;;;;;;;;;10.75;9.00;23.10;37.40;;;;;;111014;1246;45762;-61
2023/04/16 11:35:31;;;;;;;;;11.75;11.00;23.10;37.20;;;;;;111357;1244;55593;-61
2023/04/16 11:37:59;;;;;;;;;11.67;9.33;23.10;37.30;;;;;;110970;1243;53644;-61
2023/04/16 11:40:30;;;;;;;;;12.00;9.75;23.10;37.20;;;;;;111131;1244;50554;-61
2023/04/16 11:43:12;;;;;;;;;10.67;9.67;23.10;37.20;;;;;;111179;1239;49192;-62
2023/04/16 11:45:53;;;;;;;;;11.67;10.67;23.10;37.20;;;;;;111233;1243;46952;-62
2023/04/16 11:48:20;;;;;;;;;10.00;8.00;23.10;37.20;;;;;;111250;1241;55339;-61
2023/04/16 11:50:55;;;;;;;;;11.75;10.75;23.10;37.20;;;;;;111173;1244;53714;-62
2023/04/16 11:53:22;;;;;;;;;11.00;10.00;23.10;37.10;;;;;;111217;1240;50938;-60
2023/04/16 11:55:49;;;;;;;;;11.75;10.25;23.10;37.10;;;;;;111211;1239;48962;-60
2023/04/16 11:58:16;;;;;;;;;12.00;11.00;23.20;37.40;;;;;;111313;1244;45659;-61
2023/04/16 12:00:44;;;;;;;;;10.00;9.00;23.20;37.40;;;;;;111287;1240;55768;-61
2023/04/16 12:03:11;;;;;;;;;9.50;8.00;23.20;37.20;;;;;;110974;1247;53371;-61
2023/04/16 12:05:38;;;;;;;;;9.75;8.00;23.20;37.30;;;;;;111021;1247;50227;-61
2023/04/16 12:08:07;;;;;;;;;9.50;8.25;23.20;37.30;;;;;;111251;1244;48503;-61
2023/04/16 12:10:36;;;;;;;;;9.75;8.25;23.20;37.30;;;;;;111201;1241;45946;-61
2023/04/16 12:13:10;;;;;;;;;9.67;8.67;23.20;37.20;;;;;;111239;1244;56116;-60
2023/04/16 12:15:52;;;;;;;;;10.67;9.00;23.20;37.30;;;;;;111242;1241;53679;-61
2023/04/16 12:18:21;;;;;;;;;10.00;9.00;23.20;37.20;;;;;;111176;1243;49114;-60
2023/04/16 12:20:52;;;;;;;;;11.00;10.00;23.30;37.50;;;;;;110986;1241;49798;-60
2023/04/16 12:23:32;;;;;;;;;11.00;10.00;23.30;37.50;;;;;;111256;1243;45453;-60
2023/04/16 12:26:08;;;;;;;;;13.50;8.75;23.30;36.80;;;;;;111256;1241;55261;-61